Time;durP1;ratioP1;P1;durP2;ratioP2;P2;SDS_P1;SDS_P2;PMS_P1;PMS_P2;Temp;Humidity;BMP_temperature;BMP_pressure;BME280_temperature;BME280_humidity;BME280_pressure;Samples;Min_cycle;Max_cycle;Signal;HPM_P1;HPM_P2
2022/11/27 00:00:00;;;;;;;2.22;0.20;;;10.50;99.90;;;;;;5052677;28;20090;-93
2022/11/27 00:02:26;;;;;;;1.38;0.35;;;10.50;99.90;;;;;;5052287;28;20021;-93
2022/11/27 00:04:51;;;;;;;0.35;0.25;;;10.50;99.90;;;;;;5052807;28;20021;-94
2022/11/27 00:07:17;;;;;;;1.15;0.38;;;10.50;99.90;;;;;;5052501;28;20017;-93
2022/11/27 00:09:43;;;;;;;1.05;0.20;;;10.60;99.90;;;;;;5052498;28;20478;-92
2022/11/27 00:12:08;;;;;;;0.22;0.22;;;10.60;99.90;;;;;;5052367;28;20024;-91
2022/11/27 00:14:34;;;;;;;1.30;0.20;;;10.60;99.90;;;;;;5052215;28;20033;-93
2022/11/27 00:17:00;;;;;;;0.30;0.30;;;10.60;99.90;;;;;;5052860;28;20563;-94
2022/11/27 00:19:25;;;;;;;1.38;0.30;;;10.60;99.90;;;;;;5052590;28;20501;-94
2022/11/27 00:21:51;;;;;;;1.42;0.30;;;10.50;99.90;;;;;;5052993;28;20048;-92
2022/11/27 00:24:17;;;;;;;1.48;0.75;;;10.60;99.90;;;;;;5052473;28;20115;-93
2022/11/27 00:26:43;;;;;;;0.35;0.30;;;10.50;99.90;;;;;;5069023;28;20474;-92
2022/11/27 00:29:08;;;;;;;2.72;0.40;;;10.60;99.90;;;;;;5052472;28;20025;-93
2022/11/27 00:31:36;;;;;;;0.30;0.30;;;10.60;99.90;;;;;;5052639;28;20033;-93
2022/11/27 00:34:04;;;;;;;0.30;0.30;;;10.60;99.90;;;;;;5051117;28;20389;-91
2022/11/27 00:36:32;;;;;;;0.45;0.40;;;10.60;99.90;;;;;;5055445;28;20028;-93
2022/11/27 00:38:58;;;;;;;0.93;0.30;;;10.60;99.90;;;;;;5056425;28;20521;-94
2022/11/27 00:41:26;;;;;;;0.20;0.20;;;10.60;99.90;;;;;;5056166;28;20032;-92
2022/11/27 00:43:52;;;;;;;0.45;0.40;;;10.60;99.90;;;;;;5055735;28;20063;-93
2022/11/27 00:46:22;;;;;;;0.95;0.35;;;10.60;99.90;;;;;;5055322;28;20409;-92
2022/11/27 00:48:48;;;;;;;0.85;0.30;;;10.60;99.90;;;;;;5055304;28;20013;-92
2022/11/27 00:51:16;;;;;;;0.25;0.25;;;10.60;99.90;;;;;;5055546;28;20028;-93
2022/11/27 00:53:42;;;;;;;0.80;0.30;;;10.60;99.90;;;;;;5055553;28;20027;-93
2022/11/27 00:56:13;;;;;;;0.80;0.50;;;10.60;99.90;;;;;;5072548;28;20150;-92
2022/11/27 00:58:38;;;;;;;2.58;0.50;;;10.60;99.90;;;;;;5055215;28;20482;-94
2022/11/27 01:01:06;;;;;;;0.60;0.55;;;10.60;99.90;;;;;;5059868;28;20059;-92
2022/11/27 01:03:33;;;;;;;0.47;0.47;;;10.70;99.90;;;;;;5070943;28;20052;-92
2022/11/27 01:06:04;;;;;;;0.47;0.38;;;10.70;99.90;;;;;;5074629;28;20009;-91
2022/11/27 01:08:31;;;;;;;0.40;0.40;;;10.70;99.90;;;;;;5061937;28;20041;-94
2022/11/27 01:10:57;;;;;;;1.05;0.70;;;10.70;99.90;;;;;;5056194;28;20017;-94
2022/11/27 01:13:29;;;;;;;1.05;0.65;;;10.70;99.90;;;;;;5072073;28;20029;-94
2022/11/27 01:16:04;;;;;;;0.68;0.55;;;10.70;99.90;;;;;;5054938;28;20029;-91
2022/11/27 01:18:30;;;;;;;4.13;0.80;;;10.70;99.90;;;;;;5037011;28;20032;-94
2022/11/27 01:20:56;;;;;;;3.45;0.80;;;10.70;99.90;;;;;;5054334;28;20170;-92
2022/11/27 01:23:22;;;;;;;1.77;0.77;;;10.70;99.90;;;;;;5054518;28;20470;-93
2022/11/27 01:25:49;;;;;;;1.73;0.88;;;10.80;99.90;;;;;;5054312;28;20025;-93
2022/11/27 01:28:15;;;;;;;1.55;0.90;;;10.80;99.90;;;;;;5053878;28;20466;-91
2022/11/27 01:30:41;;;;;;;1.98;0.77;;;10.80;99.90;;;;;;5052259;28;20028;-94
2022/11/27 01:33:07;;;;;;;1.90;0.70;;;10.80;99.90;;;;;;5071279;28;20033;-92
2022/11/27 01:35:33;;;;;;;2.88;0.82;;;10.90;99.90;;;;;;5054735;28;20040;-93
2022/11/27 01:37:58;;;;;;;4.38;0.85;;;10.90;99.90;;;;;;5055913;28;20028;-91
2022/11/27 01:40:24;;;;;;;2.45;1.15;;;10.90;99.90;;;;;;5055636;28;20037;-93
2022/11/27 01:42:50;;;;;;;1.88;0.77;;;10.90;99.90;;;;;;5054065;28;20056;-92
2022/11/27 01:45:18;;;;;;;2.83;0.90;;;10.90;99.90;;;;;;5053636;28;20025;-93
2022/11/27 01:47:57;;;;;;;3.33;1.00;;;10.90;99.90;;;;;;5054068;28;20444;-96
2022/11/27 01:50:30;;;;;;;1.88;0.85;;;10.90;99.90;;;;;;5065758;28;20048;-94
2022/11/27 01:53:04;;;;;;;3.38;1.10;;;11.00;99.90;;;;;;5054599;28;20021;-93
2022/11/27 01:55:36;;;;;;;3.85;1.25;;;11.00;99.90;;;;;;5058424;28;20096;-93
2022/11/27 01:58:14;;;;;;;1.55;1.00;;;11.00;99.90;;;;;;5074641;28;20025;-94
2022/11/27 02:00:40;;;;;;;4.68;1.27;;;11.00;99.90;;;;;;5071211;28;20097;-93
2022/11/27 02:03:06;;;;;;;2.88;1.27;;;11.00;99.90;;;;;;5056441;28;20029;-94
2022/11/27 02:05:32;;;;;;;7.28;1.23;;;11.00;99.90;;;;;;5053581;28;20033;-93
2022/11/27 02:08:01;;;;;;;3.70;0.90;;;11.00;99.90;;;;;;5053871;28;20532;-94
2022/11/27 02:10:40;;;;;;;4.88;1.10;;;11.00;99.90;;;;;;5054220;28;20097;-94
2022/11/27 02:13:17;;;;;;;5.13;1.92;;;11.00;99.90;;;;;;5065790;28;20025;-93
2022/11/27 02:16:06;;;;;;;5.38;1.13;;;11.00;99.90;;;;;;5053341;28;20092;-93
2022/11/27 02:18:53;;;;;;;3.45;1.40;;;11.10;99.90;;;;;;5059193;28;20028;-94
2022/11/27 02:21:25;;;;;;;2.85;1.15;;;11.10;99.90;;;;;;5083001;28;20025;-93
2022/11/27 02:23:56;;;;;;;3.38;1.48;;;11.10;99.90;;;;;;5054548;28;20029;-96
2022/11/27 02:27:10;;;;;;;1.65;0.90;;;11.10;99.90;;;;;;5068219;28;20028;-94
2022/11/27 02:29:37;;;;;;;5.30;1.20;;;11.00;99.90;;;;;;5043861;28;20043;-93
2022/11/27 02:32:16;;;;;;;4.78;1.27;;;11.00;99.90;;;;;;5052994;28;20021;-94
2022/11/27 02:34:50;;;;;;;11.93;1.58;;;11.00;99.90;;;;;;5051716;28;20029;-95
2022/11/27 02:37:38;;;;;;;7.10;1.45;;;11.00;99.90;;;;;;5052742;28;20107;-94
2022/11/27 02:40:29;;;;;;;9.27;3.17;;;11.00;99.90;;;;;;5050722;28;20039;-94
2022/11/27 02:43:08;;;;;;;10.25;1.85;;;11.00;99.90;;;;;;5068691;28;20032;-94
2022/11/27 02:45:41;;;;;;;8.15;1.90;;;11.00;99.90;;;;;;5052607;28;20029;-93
2022/11/27 02:48:09;;;;;;;6.95;1.20;;;11.00;99.90;;;;;;5067463;28;20645;-92
2022/11/27 02:50:37;;;;;;;13.18;1.70;;;11.00;99.90;;;;;;5069424;28;20475;-94
2022/11/27 02:53:07;;;;;;;16.08;2.65;;;11.00;99.90;;;;;;5066891;28;20021;-94
2022/11/27 02:55:34;;;;;;;8.50;1.65;;;11.10;99.90;;;;;;5053685;28;20028;-93
2022/11/27 02:58:04;;;;;;;7.07;1.50;;;11.00;99.90;;;;;;5049331;28;20473;-93
2022/11/27 03:00:32;;;;;;;14.63;1.80;;;11.00;99.90;;;;;;5052162;28;20048;-93
2022/11/27 03:03:02;;;;;;;11.68;1.60;;;11.00;99.90;;;;;;5052227;28;20263;-94
2022/11/27 03:05:35;;;;;;;12.48;2.10;;;11.00;99.90;;;;;;5051757;28;20068;-92
2022/11/27 03:08:20;;;;;;;14.85;1.60;;;11.00;99.90;;;;;;5053464;28;20417;-93
2022/11/27 03:11:10;;;;;;;11.45;1.80;;;11.00;99.90;;;;;;5066639;28;20029;-93
2022/11/27 03:13:43;;;;;;;16.23;1.90;;;11.00;99.90;;;;;;5067764;28;20037;-93
2022/11/27 03:16:24;;;;;;;12.45;1.75;;;11.00;99.90;;;;;;5052124;28;20025;-93
2022/11/27 03:18:49;;;;;;;10.85;1.67;;;10.90;99.90;;;;;;5052200;28;20025;-94
2022/11/27 03:21:21;;;;;;;10.00;2.13;;;10.90;99.90;;;;;;5051939;28;20413;-94
2022/11/27 03:23:46;;;;;;;13.88;1.77;;;10.90;99.90;;;;;;5052043;28;20228;-90
2022/11/27 03:26:12;;;;;;;11.35;1.77;;;10.90;99.90;;;;;;5052104;28;20035;-92
2022/11/27 03:28:38;;;;;;;26.60;4.88;;;10.90;99.90;;;;;;5051780;28;20017;-93
2022/11/27 03:31:04;;;;;;;11.23;1.77;;;10.80;99.90;;;;;;5051820;28;20067;-92
2022/11/27 03:33:30;;;;;;;10.05;1.65;;;10.80;99.90;;;;;;5051882;28;20024;-94
2022/11/27 03:35:55;;;;;;;5.72;1.17;;;10.90;99.90;;;;;;5051770;28;20052;-93
2022/11/27 03:38:21;;;;;;;11.35;2.00;;;10.80;99.90;;;;;;5051996;28;20095;-94
2022/11/27 03:41:00;;;;;;;14.63;2.00;;;10.80;99.90;;;;;;5051530;28;20041;-94
2022/11/27 03:43:32;;;;;;;13.25;2.42;;;10.80;99.90;;;;;;5049951;28;20044;-94
2022/11/27 03:46:04;;;;;;;22.48;2.65;;;10.80;99.90;;;;;;5051751;28;20033;-93
2022/11/27 03:48:55;;;;;;;13.25;2.15;;;10.80;99.90;;;;;;5051561;28;20564;-93
2022/11/27 03:51:41;;;;;;;;;;;10.80;99.90;;;;;;5048791;28;20071;-93
2022/11/27 03:54:10;;;;;;;20.42;2.30;;;10.80;99.90;;;;;;5065012;28;19913;-93
2022/11/27 03:56:57;;;;;;;16.58;2.25;;;10.70;99.90;;;;;;5050212;28;20039;-93
2022/11/27 03:59:27;;;;;;;32.45;5.18;;;10.70;99.90;;;;;;5064913;28;20142;-91
2022/11/27 04:01:52;;;;;;;19.48;2.50;;;10.70;99.90;;;;;;5051099;28;20028;-92
2022/11/27 04:04:18;;;;;;;24.98;2.83;;;10.70;99.90;;;;;;5050571;28;20024;-93
2022/11/27 04:06:44;;;;;;;20.27;2.88;;;10.60;99.90;;;;;;5049996;28;20013;-95
2022/11/27 04:09:09;;;;;;;22.40;2.45;;;10.60;99.90;;;;;;5067169;28;20497;-94
2022/11/27 04:11:35;;;;;;;19.88;3.20;;;10.70;99.90;;;;;;5053057;28;20029;-95
2022/11/27 04:14:01;;;;;;;26.55;3.47;;;10.60;99.90;;;;;;5066624;28;20016;-93
2022/11/27 04:16:27;;;;;;;19.75;2.90;;;10.60;99.90;;;;;;5051838;28;20033;-93
2022/11/27 04:18:52;;;;;;;26.77;3.85;;;10.60;99.90;;;;;;5065716;28;20028;-92
2022/11/27 04:21:18;;;;;;;20.60;3.25;;;10.60;99.90;;;;;;5050916;28;20028;-93
2022/11/27 04:23:44;;;;;;;28.15;2.95;;;10.60;99.90;;;;;;5050624;28;20016;-94
2022/11/27 04:26:09;;;;;;;26.15;3.08;;;10.50;99.90;;;;;;5050966;28;20021;-94
2022/11/27 04:28:35;;;;;;;24.52;3.00;;;10.50;99.90;;;;;;5050430;28;20068;-94
2022/11/27 04:31:01;;;;;;;28.85;3.67;;;10.50;99.90;;;;;;5050622;28;20052;-92
2022/11/27 04:33:27;;;;;;;33.42;3.53;;;10.40;99.90;;;;;;5050783;28;20079;-94
2022/11/27 04:35:52;;;;;;;21.80;3.35;;;10.40;99.90;;;;;;5063159;28;20095;-93
2022/11/27 04:38:19;;;;;;;14.35;2.58;;;10.40;99.90;;;;;;5051980;28;20048;-94
2022/11/27 04:40:45;;;;;;;17.23;2.70;;;10.40;99.90;;;;;;5050081;28;20079;-93
2022/11/27 04:43:11;;;;;;;29.55;3.95;;;10.40;99.90;;;;;;5071327;28;20021;-92
2022/11/27 04:45:37;;;;;;;25.85;2.92;;;10.30;99.90;;;;;;5060554;28;20120;-94
2022/11/27 04:48:03;;;;;;;29.67;3.25;;;10.30;99.90;;;;;;5057811;28;20028;-93
2022/11/27 04:50:29;;;;;;;26.20;2.70;;;10.30;99.90;;;;;;5056394;28;20036;-93
2022/11/27 04:52:55;;;;;;;25.08;3.70;;;10.30;99.90;;;;;;5055182;28;20027;-94
2022/11/27 04:55:21;;;;;;;27.75;3.53;;;10.20;99.90;;;;;;5051833;28;20040;-94
2022/11/27 04:57:47;;;;;;;27.20;3.33;;;10.20;99.90;;;;;;5051699;28;20033;-93
2022/11/27 05:00:13;;;;;;;24.55;3.83;;;10.20;99.90;;;;;;5065210;28;20095;-94
2022/11/27 05:02:39;;;;;;;23.83;2.90;;;10.20;99.90;;;;;;5051760;28;20039;-93
2022/11/27 05:05:05;;;;;;;32.60;3.28;;;10.10;99.90;;;;;;5051528;28;20025;-93
2022/11/27 05:07:31;;;;;;;21.42;2.78;;;10.00;99.90;;;;;;5069695;28;20108;-94
2022/11/27 05:09:56;;;;;;;31.88;4.25;;;10.00;99.90;;;;;;5062458;28;20045;-93
2022/11/27 05:12:22;;;;;;;30.70;4.32;;;10.00;99.90;;;;;;5061513;28;20482;-93
2022/11/27 05:14:48;;;;;;;31.00;3.90;;;9.90;99.90;;;;;;5051920;28;20036;-94
2022/11/27 05:17:14;;;;;;;20.55;4.18;;;9.90;99.90;;;;;;5051097;28;20025;-94
2022/11/27 05:19:39;;;;;;;34.75;4.45;;;9.80;99.90;;;;;;5054092;28;20478;-94
2022/11/27 05:22:05;;;;;;;35.28;4.43;;;9.80;99.90;;;;;;5059541;28;20044;-94
2022/11/27 05:24:31;;;;;;;34.38;3.53;;;9.80;99.90;;;;;;5074734;28;20089;-91
2022/11/27 05:26:57;;;;;;;25.30;5.63;;;9.80;99.90;;;;;;5074792;28;20047;-95
2022/11/27 05:29:24;;;;;;;34.33;5.55;;;9.70;99.90;;;;;;5072395;28;20021;-93
2022/11/27 05:31:50;;;;;;;40.22;6.07;;;9.70;99.90;;;;;;5071500;28;20025;-91
2022/11/27 05:34:16;;;;;;;25.25;2.78;;;9.70;99.90;;;;;;5071506;28;20134;-91
2022/11/27 05:36:42;;;;;;;49.50;7.20;;;9.70;99.90;;;;;;5061006;28;20474;-94
2022/11/27 05:39:09;;;;;;;45.25;6.28;;;9.70;99.90;;;;;;5058468;28;20039;-94
2022/11/27 05:41:37;;;;;;;33.17;5.18;;;9.70;99.90;;;;;;5071749;28;20039;-94
2022/11/27 05:44:02;;;;;;;39.08;5.05;;;9.60;99.90;;;;;;5056732;28;20021;-95
2022/11/27 05:46:28;;;;;;;49.13;5.68;;;9.60;99.90;;;;;;5056743;28;20029;-93
2022/11/27 05:48:54;;;;;;;48.15;4.55;;;9.60;99.90;;;;;;5056924;28;20495;-93
2022/11/27 05:51:19;;;;;;;34.70;4.53;;;9.60;99.90;;;;;;5055989;28;20017;-95
2022/11/27 05:53:45;;;;;;;53.88;5.45;;;9.60;99.90;;;;;;5056536;28;20036;-95
2022/11/27 05:56:16;;;;;;;26.98;3.90;;;9.60;99.90;;;;;;5055869;28;20025;-95
2022/11/27 05:58:43;;;;;;;;;;;9.50;99.90;;;;;;5071922;28;20036;-94
2022/11/27 06:01:09;;;;;;;42.67;4.35;;;9.50;99.90;;;;;;5054019;28;20211;-95
2022/11/27 06:03:37;;;;;;;38.95;4.07;;;9.50;99.90;;;;;;5053856;28;20052;-94
2022/11/27 06:06:30;;;;;;;32.75;3.80;;;9.50;99.90;;;;;;5054071;28;20025;-94
2022/11/27 06:08:55;;;;;;;49.83;6.78;;;9.50;99.90;;;;;;5067417;28;20100;-95
2022/11/27 06:11:22;;;;;;;36.05;5.38;;;9.40;99.90;;;;;;5054550;28;20044;-95
2022/11/27 06:13:48;;;;;;;38.03;4.93;;;9.40;99.90;;;;;;5071217;28;20029;-95
2022/11/27 06:16:20;;;;;;;34.42;4.20;;;9.40;99.90;;;;;;5068389;28;20528;-95
2022/11/27 06:18:51;;;;;;;28.35;4.57;;;9.40;99.90;;;;;;5054171;28;20025;-95
2022/11/27 06:21:18;;;;;;;39.50;6.32;;;9.40;99.90;;;;;;5063452;28;20049;-94
2022/11/27 06:23:44;;;;;;;59.58;5.70;;;9.40;99.90;;;;;;5055322;28;20067;-95
2022/11/27 06:26:19;;;;;;;36.63;5.65;;;9.40;99.90;;;;;;5053627;28;20470;-95
2022/11/27 06:28:45;;;;;;;51.58;5.75;;;9.40;99.90;;;;;;5053169;28;20025;-95
2022/11/27 06:31:13;;;;;;;30.25;4.70;;;9.30;99.90;;;;;;5052519;28;20025;-94
2022/11/27 06:33:39;;;;;;;41.25;4.70;;;9.30;99.90;;;;;;5053829;28;20052;-95
2022/11/27 06:36:05;;;;;;;26.90;3.35;;;9.30;99.90;;;;;;5053603;28;20475;-94
2022/11/27 06:38:33;;;;;;;34.65;4.60;;;9.30;99.90;;;;;;5053741;28;20479;-95
2022/11/27 06:41:04;;;;;;;42.78;5.10;;;9.30;99.90;;;;;;5070248;28;20036;-94
2022/11/27 06:43:29;;;;;;;35.55;6.50;;;9.30;99.90;;;;;;5055041;28;20040;-91
2022/11/27 06:45:56;;;;;;;35.50;5.13;;;9.30;99.90;;;;;;5053399;28;20359;-94
2022/11/27 06:48:22;;;;;;;32.97;4.35;;;9.20;99.90;;;;;;5053636;28;20028;-94
2022/11/27 06:50:48;;;;;;;42.63;7.65;;;9.20;99.90;;;;;;5053823;28;20021;-94
2022/11/27 06:53:13;;;;;;;39.22;4.60;;;9.20;99.90;;;;;;5053440;28;20417;-94
2022/11/27 06:55:39;;;;;;;41.58;4.95;;;9.20;99.90;;;;;;5053550;28;20052;-93
2022/11/27 06:58:04;;;;;;;60.92;5.35;;;9.10;99.90;;;;;;5054471;28;20489;-94
2022/11/27 07:00:30;;;;;;;35.92;4.70;;;9.10;99.90;;;;;;5054120;28;20103;-94
2022/11/27 07:02:56;;;;;;;47.65;6.57;;;9.10;99.90;;;;;;5054247;28;20071;-93
2022/11/27 07:05:23;;;;;;;55.85;6.15;;;9.10;99.90;;;;;;5052577;28;20025;-93
2022/11/27 07:07:49;;;;;;;51.45;5.43;;;9.00;99.90;;;;;;5053359;28;20067;-94
2022/11/27 07:10:14;;;;;;;51.90;7.50;;;9.00;99.90;;;;;;5053790;28;20029;-93
2022/11/27 07:12:40;;;;;;;47.92;4.93;;;9.10;99.90;;;;;;5052952;28;20020;-95
2022/11/27 07:15:07;;;;;;;40.97;5.13;;;9.10;99.90;;;;;;5053216;28;20039;-95
2022/11/27 07:17:33;;;;;;;38.25;4.65;;;9.10;99.90;;;;;;5054426;28;20071;-95
2022/11/27 07:19:58;;;;;;;52.30;6.50;;;9.10;99.90;;;;;;5053643;28;20041;-94
2022/11/27 07:22:24;;;;;;;30.08;4.28;;;9.00;99.90;;;;;;5055216;28;20085;-94
2022/11/27 07:24:50;;;;;;;35.72;5.45;;;9.00;99.90;;;;;;5055157;28;20025;-95
2022/11/27 07:27:15;;;;;;;46.33;6.28;;;9.00;99.90;;;;;;5052846;28;20024;-94
2022/11/27 07:29:41;;;;;;;35.78;4.63;;;8.90;99.90;;;;;;5053956;28;20024;-95
2022/11/27 07:32:06;;;;;;;30.13;4.30;;;8.90;99.90;;;;;;5087992;28;20029;-93
2022/11/27 07:34:32;;;;;;;55.47;5.85;;;8.90;99.90;;;;;;5062686;28;20395;-93
2022/11/27 07:36:57;;;;;;;31.30;4.28;;;8.90;99.90;;;;;;5057403;28;20025;-94
2022/11/27 07:39:23;;;;;;;42.75;6.65;;;8.90;99.90;;;;;;5059603;28;20051;-93
2022/11/27 07:41:49;;;;;;;41.60;4.32;;;8.80;99.90;;;;;;5058367;28;20036;-94
2022/11/27 07:44:15;;;;;;;44.03;7.03;;;8.80;99.90;;;;;;5057854;28;20096;-95
2022/11/27 07:46:40;;;;;;;44.28;6.28;;;8.80;99.90;;;;;;5055198;28;20299;-95
2022/11/27 07:49:06;;;;;;;33.00;4.82;;;8.80;99.90;;;;;;5070094;28;20542;-93
2022/11/27 07:51:32;;;;;;;29.52;4.15;;;8.80;99.90;;;;;;5052742;28;20119;-93
2022/11/27 07:53:58;;;;;;;47.78;6.40;;;8.80;99.90;;;;;;5052640;28;20102;-94
2022/11/27 07:56:24;;;;;;;37.45;5.55;;;8.80;99.90;;;;;;5052902;28;20025;-94
2022/11/27 07:58:50;;;;;;;36.97;4.78;;;8.80;99.90;;;;;;5055103;28;20035;-94
2022/11/27 08:01:18;;;;;;;47.70;5.68;;;8.80;99.90;;;;;;5042874;28;20052;-94
2022/11/27 08:03:45;;;;;;;34.20;5.80;;;8.80;99.90;;;;;;5052813;28;20059;-94
2022/11/27 08:06:23;;;;;;;43.50;6.13;;;8.80;99.90;;;;;;5051548;28;20490;-95
2022/11/27 08:08:49;;;;;;;26.92;5.60;;;8.80;99.90;;;;;;5051166;28;20021;-93
2022/11/27 08:11:19;;;;;;;64.90;7.32;;;8.70;99.90;;;;;;5051561;28;20028;-94
2022/11/27 08:13:45;;;;;;;29.80;5.60;;;8.70;99.90;;;;;;5051816;28;20111;-94
2022/11/27 08:16:11;;;;;;;41.55;5.93;;;8.70;99.90;;;;;;5048372;28;20112;-93
2022/11/27 08:18:37;;;;;;;37.08;6.22;;;8.70;99.90;;;;;;5049839;28;20028;-94
2022/11/27 08:21:02;;;;;;;39.60;6.22;;;8.70;99.90;;;;;;5066753;28;20567;-93
2022/11/27 08:23:28;;;;;;;57.25;5.57;;;8.70;99.90;;;;;;5056503;28;20068;-92
2022/11/27 08:25:54;;;;;;;54.47;5.97;;;8.70;99.90;;;;;;5050467;28;20082;-94
2022/11/27 08:28:19;;;;;;;33.50;6.18;;;8.70;99.90;;;;;;5064658;28;20025;-93
2022/11/27 08:30:45;;;;;;;55.63;5.57;;;8.70;99.90;;;;;;5058900;28;20048;-93
2022/11/27 08:33:14;;;;;;;36.30;4.20;;;8.70;99.90;;;;;;5048239;28;20017;-92
2022/11/27 08:35:39;;;;;;;42.00;5.45;;;8.70;99.90;;;;;;5067601;28;20089;-93
2022/11/27 08:38:05;;;;;;;30.17;4.72;;;8.70;99.90;;;;;;5063855;28;20020;-94
2022/11/27 08:40:30;;;;;;;31.05;4.80;;;8.70;99.90;;;;;;5066648;28;20029;-94
2022/11/27 08:42:57;;;;;;;49.50;5.38;;;8.70;99.90;;;;;;5059879;28;20018;-94
2022/11/27 08:45:23;;;;;;;35.05;4.50;;;8.70;99.90;;;;;;5043882;28;20049;-92
2022/11/27 08:47:48;;;;;;;55.65;5.55;;;8.70;99.90;;;;;;5062281;28;20099;-94
2022/11/27 08:50:14;;;;;;;38.20;5.28;;;8.70;99.90;;;;;;5057157;28;20574;-93
2022/11/27 08:52:40;;;;;;;54.85;6.68;;;8.70;99.90;;;;;;5059858;28;20024;-93
2022/11/27 08:55:06;;;;;;;60.38;7.40;;;8.70;99.90;;;;;;5068948;28;20027;-93
2022/11/27 08:57:32;;;;;;;54.05;7.10;;;8.70;99.90;;;;;;5064110;28;20124;-94
2022/11/27 08:59:57;;;;;;;48.72;5.75;;;8.80;99.90;;;;;;5071623;28;20535;-93
2022/11/27 09:02:23;;;;;;;61.30;8.80;;;8.80;99.90;;;;;;5055759;28;20113;-92
2022/11/27 09:04:49;;;;;;;48.42;5.18;;;8.80;99.90;;;;;;5055439;28;20053;-92
2022/11/27 09:07:15;;;;;;;68.78;9.18;;;8.90;99.90;;;;;;5054959;28;20056;-92
2022/11/27 09:09:41;;;;;;;44.88;5.07;;;8.90;99.90;;;;;;5069118;28;20423;-92
2022/11/27 09:12:07;;;;;;;40.95;5.63;;;9.00;99.90;;;;;;5055077;28;20055;-92
2022/11/27 09:14:32;;;;;;;52.05;6.30;;;9.00;99.90;;;;;;5055038;28;20484;-92
2022/11/27 09:16:58;;;;;;;52.50;7.22;;;9.00;99.90;;;;;;5070768;28;20021;-93
2022/11/27 09:19:24;;;;;;;55.78;5.85;;;9.00;99.90;;;;;;5071138;28;20033;-91
2022/11/27 09:21:50;;;;;;;44.35;6.38;;;9.00;99.90;;;;;;5056376;28;20055;-92
2022/11/27 09:24:16;;;;;;;43.17;5.93;;;9.00;99.90;;;;;;5072428;28;20017;-92
2022/11/27 09:26:43;;;;;;;56.78;8.05;;;9.10;99.90;;;;;;5072188;28;20028;-91
2022/11/27 09:29:09;;;;;;;53.70;6.78;;;9.10;99.90;;;;;;5055379;28;20029;-92
2022/11/27 09:31:35;;;;;;;39.97;5.97;;;9.10;99.90;;;;;;5071809;28;20025;-93
2022/11/27 09:34:00;;;;;;;47.42;5.32;;;9.10;99.90;;;;;;5057156;28;20023;-93
2022/11/27 09:36:26;;;;;;;43.63;5.47;;;9.10;99.90;;;;;;5054955;28;20029;-93
2022/11/27 09:38:52;;;;;;;40.92;5.68;;;9.20;99.90;;;;;;5071252;28;20021;-92
2022/11/27 09:41:42;;;;;;;35.08;4.60;;;9.20;99.90;;;;;;5054008;28;20068;-94
2022/11/27 09:44:45;;;;;;;50.07;5.53;;;9.20;99.90;;;;;;5043196;28;20112;-94
2022/11/27 09:47:53;;;;;;;48.45;8.07;;;9.30;99.90;;;;;;5071785;28;20271;-91
2022/11/27 09:50:27;;;;;;;49.95;6.28;;;9.30;99.90;;;;;;5033940;28;20447;-93
2022/11/27 09:53:02;;;;;;;48.13;5.72;;;9.30;99.90;;;;;;5017247;28;20079;-93
2022/11/27 09:55:35;;;;;;;80.13;9.68;;;9.40;99.90;;;;;;5017152;28;20501;-91
2022/11/27 09:58:06;;;;;;;55.58;8.55;;;9.40;99.90;;;;;;5016874;28;20025;-93
2022/11/27 10:00:32;;;;;;;54.95;6.88;;;9.50;99.90;;;;;;5032389;28;20117;-94
2022/11/27 10:02:59;;;;;;;56.58;6.25;;;9.50;99.90;;;;;;5016768;28;20482;-93
2022/11/27 10:05:34;;;;;;;41.42;5.35;;;9.60;99.90;;;;;;5016379;28;20072;-93
2022/11/27 10:08:38;;;;;;;42.65;5.93;;;9.70;99.90;;;;;;5017686;28;20053;-92
2022/11/27 10:11:17;;;;;;;45.17;6.03;;;9.70;99.90;;;;;;5020363;28;20029;-92
2022/11/27 10:14:01;;;;;;;58.22;7.72;;;9.80;99.90;;;;;;5017036;28;20041;-94
2022/11/27 10:16:57;;;;;;;63.47;7.68;;;9.90;99.90;;;;;;5017320;28;20026;-93
2022/11/27 10:19:28;;;;;;;38.03;5.20;;;9.90;99.90;;;;;;5033316;28;20111;-92
2022/11/27 10:21:56;;;;;;;34.75;5.13;;;10.00;99.90;;;;;;5016813;28;20040;-94
2022/11/27 10:24:44;;;;;;;48.55;5.35;;;10.10;99.90;;;;;;5039356;28;20044;-92
2022/11/27 10:27:22;;;;;;;48.05;6.47;;;10.10;99.90;;;;;;5047938;28;20040;-93
2022/11/27 10:29:56;;;;;;;42.70;6.07;;;10.10;99.90;;;;;;5067076;28;20163;-93
2022/11/27 10:32:28;;;;;;;46.42;7.00;;;10.10;99.90;;;;;;5053255;28;20118;-93
2022/11/27 10:35:02;;;;;;;48.00;6.35;;;10.20;99.90;;;;;;5070920;28;20041;-94
2022/11/27 10:37:33;;;;;;;32.08;5.75;;;10.20;99.90;;;;;;5074346;28;20036;-94
2022/11/27 10:40:05;;;;;;;42.85;6.30;;;10.20;99.90;;;;;;5076707;28;20025;-94
2022/11/27 10:42:36;;;;;;;35.30;4.88;;;10.20;99.90;;;;;;5064884;28;20021;-92
2022/11/27 10:45:16;;;;;;;49.53;6.00;;;10.20;99.90;;;;;;5055546;28;20032;-92
2022/11/27 10:47:45;;;;;;;44.28;5.78;;;10.20;99.90;;;;;;5044392;28;20025;-92
2022/11/27 10:50:18;;;;;;;36.33;5.35;;;10.20;99.90;;;;;;5064929;28;20025;-92
2022/11/27 10:53:09;;;;;;;42.80;5.40;;;10.20;99.90;;;;;;5056400;28;20017;-93
2022/11/27 10:56:22;;;;;;;57.83;7.72;;;10.20;99.90;;;;;;5045057;28;20024;-91
2022/11/27 10:59:03;;;;;;;44.88;5.47;;;10.20;99.90;;;;;;5050520;28;20021;-93
2022/11/27 11:01:42;;;;;;;45.90;6.45;;;10.20;99.90;;;;;;5062015;28;20048;-91
2022/11/27 11:04:09;;;;;;;52.03;8.07;;;10.20;99.90;;;;;;5064935;28;20579;-93
2022/11/27 11:06:42;;;;;;;38.75;6.68;;;10.30;99.90;;;;;;5069357;28;20090;-92
2022/11/27 11:09:13;;;;;;;44.65;4.85;;;10.30;99.90;;;;;;5056717;28;20120;-92
2022/11/27 11:11:39;;;;;;;35.03;4.60;;;10.30;99.90;;;;;;5068555;28;20028;-94
2022/11/27 11:14:25;;;;;;;42.88;7.60;;;10.30;99.90;;;;;;5053747;28;20021;-95
2022/11/27 11:16:54;;;;;;;41.63;4.50;;;10.40;99.90;;;;;;5048841;28;20021;-93
2022/11/27 11:19:36;;;;;;;44.85;5.82;;;10.40;99.90;;;;;;5063647;28;20028;-93
2022/11/27 11:22:13;;;;;;;42.67;4.80;;;10.50;99.90;;;;;;5060126;28;20053;-94
2022/11/27 11:24:43;;;;;;;47.90;6.07;;;10.50;99.90;;;;;;5049571;28;20055;-93
2022/11/27 11:27:16;;;;;;;52.85;6.78;;;10.50;99.90;;;;;;5067632;28;20094;-94
2022/11/27 11:29:54;;;;;;;50.20;5.68;;;10.50;99.90;;;;;;5051234;28;20056;-93
2022/11/27 11:32:21;;;;;;;48.28;6.00;;;10.50;99.90;;;;;;5050425;28;20021;-95
2022/11/27 11:34:55;;;;;;;41.83;4.45;;;10.40;99.90;;;;;;5053228;28;20041;-93
2022/11/27 11:37:52;;;;;;;37.05;6.03;;;10.40;99.90;;;;;;5052279;28;20090;-93
2022/11/27 11:40:31;;;;;;;36.28;5.13;;;10.40;99.90;;;;;;5048382;28;20051;-93
2022/11/27 11:43:04;;;;;;;45.42;5.28;;;10.40;99.90;;;;;;5049945;28;20013;-94
2022/11/27 11:45:31;;;;;;;41.90;5.35;;;10.40;99.90;;;;;;5052126;28;20036;-94
2022/11/27 11:48:16;;;;;;;44.88;5.50;;;10.40;99.90;;;;;;5053209;28;20033;-92
2022/11/27 11:50:49;;;;;;;64.95;8.50;;;10.40;99.90;;;;;;5067105;28;20021;-93
2022/11/27 11:53:38;;;;;;;41.67;5.85;;;10.40;99.90;;;;;;5052330;28;20086;-93
2022/11/27 11:56:21;;;;;;;40.72;5.43;;;10.40;99.90;;;;;;5067179;28;20020;-93
2022/11/27 11:58:57;;;;;;;55.75;8.20;;;10.40;99.90;;;;;;5067861;28;20037;-92
2022/11/27 12:01:29;;;;;;;34.10;6.15;;;10.40;99.90;;;;;;5051418;28;20120;-93
2022/11/27 12:03:55;;;;;;;46.97;5.35;;;10.60;99.90;;;;;;5052028;28;20398;-93
2022/11/27 12:06:34;;;;;;;54.33;7.38;;;10.60;99.90;;;;;;5052178;28;20032;-94
2022/11/27 12:09:15;;;;;;;36.53;5.70;;;10.70;99.90;;;;;;5068872;28;20087;-93
2022/11/27 12:12:09;;;;;;;36.67;4.93;;;10.80;99.90;;;;;;5072110;28;20116;-93
2022/11/27 12:14:37;;;;;;;43.22;6.72;;;10.80;99.90;;;;;;5052203;28;20486;-92
2022/11/27 12:17:33;;;;;;;43.33;6.40;;;10.80;99.90;;;;;;5052923;28;20021;-93
2022/11/27 12:20:31;;;;;;;44.15;5.35;;;10.80;99.90;;;;;;5052730;28;20037;-93
2022/11/27 12:23:15;;;;;;;44.90;5.85;;;10.90;99.90;;;;;;5053600;28;20041;-93
2022/11/27 12:26:13;;;;;;;46.10;7.00;;;10.90;99.90;;;;;;5054300;28;20107;-93
2022/11/27 12:29:13;;;;;;;30.15;4.85;;;10.80;99.90;;;;;;5060603;28;20484;-95
2022/11/27 12:31:42;;;;;;;47.95;6.10;;;10.80;99.90;;;;;;5081782;28;20116;-93
2022/11/27 12:34:26;;;;;;;45.22;6.13;;;10.80;99.90;;;;;;5065358;28;20040;-92
2022/11/27 12:37:08;;;;;;;42.80;8.60;;;10.80;99.90;;;;;;5073089;28;20035;-93
2022/11/27 12:40:10;;;;;;;54.25;6.03;;;10.70;99.90;;;;;;5078746;28;20019;-92
2022/11/27 12:42:45;;;;;;;45.63;5.72;;;10.70;99.90;;;;;;5062085;28;20043;-94
2022/11/27 12:45:10;;;;;;;40.28;5.90;;;10.70;99.90;;;;;;5059108;28;20174;-93
2022/11/27 12:47:55;;;;;;;43.40;5.65;;;10.60;99.90;;;;;;5058462;28;20446;-93
2022/11/27 12:50:41;;;;;;;55.13;6.88;;;10.60;99.90;;;;;;5058637;28;20025;-92
2022/11/27 12:53:47;;;;;;;49.00;6.30;;;10.60;99.90;;;;;;5056268;28;20045;-93
2022/11/27 12:56:15;;;;;;;44.90;5.22;;;10.60;99.90;;;;;;5056423;28;20021;-91
2022/11/27 12:58:49;;;;;;;43.03;5.90;;;10.60;99.90;;;;;;5055679;28;20479;-93
2022/11/27 13:01:22;;;;;;;39.20;5.28;;;10.50;99.90;;;;;;5056239;28;20045;-92